Country
Station

 

Weather  for  Fassberg  -  Germany    Germany

  
16 °C (61 °F)
    
 
 

Current METAR for Fassberg is :

ETHS 181420Z 02007KT 9999 BKN025 SCT045 16/09 Q1023 BLU BLU BECMG BLU+

 

This is a report for Fassberg - Germany.
 
The report was made 37 minutes ago, at 14:20 UTC .
The wind was blowing at a speed of 3.6 meters per second (8.1 miles per hour) from north/northeast (020°).
 
The temperature was 16 °C (61 °F), with a dew-point at 9 °C (48 °F).
The atmospheric pressure was 1023 hPa (30.21 inHg).
The relative humidity was 63.1%.
 
There were broken clouds at a height of 762 meters (2500 feet) and scattered clouds at a height of 1372 meters (4500 feet).
 
The overall visibility was greater than 10 kilometers (6.2 miles).
 

 
 
 
 

Country :   A   B   C   D   E   F   G   H   I   J   K   L   M   N   O   P   Q   R   S   T   U   V   W   Y   Z

 

Site Info  |  Disclaimer  |  Credits  |  Privacy
Contact us  |  Add to favorites
© 2013-2018 METARs - All rights reserved